Marathon, Florida
Current Conditions -  °F | °C
As of 12:53 AM on Friday 28 Nov 2014 (Local Time) from KMTH Reporting Station
Clear Clear  
Wind Chill: 64°   Ceiling: Unl
Heat Index: 64°   Visibility: 10mi
Dew Point: 52°   Wind: 15mph
Humidity: 65%   Direction: 10°N
Pressure: 30.18"   Gusts: 25mph
Location:  24.73°N, 81.04°W
Report Text: KMTH 280553Z AUTO 01013G22KT 10SM CLR 18/11 A3018 RMK AO2 SLP219 T01780111 10206 20178 56007
Loading
Personal Weather Stations






























Interactive Weather Map New forecast layout! Learn more

10-Day Weather Forecast

Advertisements
Track Severe Weather on mobile